< < Back
Terminal Aerodrome Forecast


Current Version              Previous Versions:   1  2  3  4  5  6  7  8  9  

Terminal Aerodrome Forecast

641
FTUS44 KOHX 302332
TAFCSV
TAF
KCSV 302332Z 0100/0124 VRB03KT 5SM -SHRA SCT035 BKN060
      TEMPO 0100/0102 2SM TSRA BKN035CB OVC050
     FM010600 13004KT 5SM BR OVC015
     FM011100 18006KT 4SM -SHRA BR OVC007
     FM011500 20007KT P6SM VCSH SCT012 OVC030=



Latest METAR

153
SAUS70 KWBC 010000 RRU
MTRCSV
METAR KCSV 302353Z AUTO 14010G17KT 6SM VCTS -RA BR FEW010 BKN035 OVC075
19/17 A2997 RMK AO2 LTG DSNT E AND SE AND NW SLP132 P0011
60012 T01890167 10244 20189 53007


USA.gov is the U.S. government's official web portal to all federal, state and local government web resources and services.